Time;durP1;ratioP1;P1;durP2;ratioP2;P2;SDS_P1;SDS_P2;PMS_P1;PMS_P2;Temp;Humidity;BMP_temperature;BMP_pressure;BME280_temperature;BME280_humidity;BME280_pressure;Samples;Min_cycle;Max_cycle;Signal;HPM_P1;HPM_P2
2022/04/22 00:00:18;;;;;;;7.25;5.32;;;12.20;93.60;;;;;;5036443;28;20037;-86
2022/04/22 00:02:44;;;;;;;8.52;5.05;;;12.20;93.90;;;;;;5053921;28;20030;-87
2022/04/22 00:05:10;;;;;;;6.65;5.30;;;12.10;94.00;;;;;;5037152;28;20037;-85
2022/04/22 00:07:36;;;;;;;7.63;5.20;;;12.10;94.20;;;;;;5043480;28;20064;-85
2022/04/22 00:10:04;;;;;;;8.38;5.07;;;12.10;94.40;;;;;;5042056;28;20022;-86
2022/04/22 00:12:30;;;;;;;7.40;4.78;;;12.10;94.50;;;;;;5039847;28;20116;-87
2022/04/22 00:14:56;;;;;;;8.35;4.80;;;12.10;94.60;;;;;;5056205;28;20568;-86
2022/04/22 00:17:21;;;;;;;11.93;5.63;;;12.00;94.80;;;;;;5042769;28;20032;-88
2022/04/22 00:19:47;;;;;;;7.15;4.97;;;12.00;95.00;;;;;;5054198;28;20017;-88
2022/04/22 00:22:13;;;;;;;8.27;5.28;;;12.00;95.10;;;;;;5075909;28;20033;-87
2022/04/22 00:24:38;;;;;;;6.68;5.00;;;11.90;95.40;;;;;;5039904;28;20037;-88
2022/04/22 00:27:04;;;;;;;7.65;5.50;;;11.90;95.50;;;;;;5043019;28;20057;-87
2022/04/22 00:29:29;;;;;;;7.53;4.88;;;11.90;95.70;;;;;;5038597;28;20025;-87
2022/04/22 00:31:55;;;;;;;8.43;5.05;;;11.80;95.80;;;;;;5039407;28;20515;-86
2022/04/22 00:34:21;;;;;;;7.47;4.75;;;11.80;95.90;;;;;;5045195;28;20045;-88
2022/04/22 00:36:47;;;;;;;6.68;4.43;;;11.70;96.10;;;;;;5041712;28;20071;-86
2022/04/22 00:39:12;;;;;;;7.30;4.50;;;11.70;96.10;;;;;;5040776;28;20021;-88
2022/04/22 00:41:38;;;;;;;6.88;4.70;;;11.70;96.20;;;;;;5039744;28;20071;-86
2022/04/22 00:44:04;;;;;;;8.45;5.13;;;11.70;96.40;;;;;;5039478;28;20490;-88
2022/04/22 00:46:29;;;;;;;8.07;5.43;;;11.70;96.50;;;;;;5039627;28;20032;-87
2022/04/22 00:48:56;;;;;;;8.18;5.40;;;11.60;96.70;;;;;;5039381;28;20033;-86
2022/04/22 00:51:22;;;;;;;9.85;6.65;;;11.60;96.80;;;;;;5038863;28;20037;-87
2022/04/22 00:53:50;;;;;;;7.82;5.63;;;11.50;97.40;;;;;;5038444;28;20085;-87
2022/04/22 00:56:16;;;;;;;7.75;5.00;;;11.50;97.50;;;;;;5056640;28;20033;-87
2022/04/22 00:58:44;;;;;;;6.72;5.30;;;11.50;97.50;;;;;;5038908;28;20116;-86
2022/04/22 01:01:13;;;;;;;6.72;4.70;;;11.40;97.60;;;;;;5038556;28;20037;-87
2022/04/22 01:09:46;;;;;;;8.38;5.35;;;11.40;97.70;;;;;;5038830;28;20048;-87
2022/04/22 01:11:58;;;;;;;5.68;4.55;;;11.30;98.00;;;;;;5057153;28;20480;-87
2022/04/22 01:14:24;;;;;;;6.65;4.80;;;11.30;98.10;;;;;;5038798;28;20696;-88
2022/04/22 01:16:49;;;;;;;7.68;4.75;;;11.30;98.20;;;;;;5038509;28;20029;-87
2022/04/22 01:19:15;;;;;;;6.97;5.00;;;11.20;98.30;;;;;;5038772;28;20033;-88
2022/04/22 01:21:40;;;;;;;7.13;5.38;;;11.20;98.30;;;;;;5038488;28;20048;-87
2022/04/22 01:24:06;;;;;;;6.22;4.57;;;11.20;98.70;;;;;;5038805;28;20487;-86
2022/04/22 01:26:34;;;;;;;6.85;4.68;;;11.20;98.50;;;;;;5039018;28;20033;-85
2022/04/22 01:29:01;;;;;;;6.32;4.53;;;11.10;98.50;;;;;;5041367;28;20150;-87
2022/04/22 01:31:27;;;;;;;6.93;4.82;;;11.10;98.60;;;;;;5039973;28;20044;-86
2022/04/22 01:33:53;;;;;;;7.65;4.60;;;11.10;98.70;;;;;;5041551;28;20037;-86
2022/04/22 01:36:20;;;;;;;5.32;3.75;;;11.10;98.80;;;;;;5042730;28;20072;-86
2022/04/22 01:38:47;;;;;;;6.35;4.00;;;11.00;99.00;;;;;;5040243;28;20033;-87
2022/04/22 01:41:13;;;;;;;6.78;4.35;;;11.00;99.10;;;;;;5023904;28;20071;-87
2022/04/22 01:43:38;;;;;;;7.78;5.97;;;11.00;99.20;;;;;;5041232;28;20036;-87
2022/04/22 01:46:04;;;;;;;8.07;4.97;;;11.00;99.40;;;;;;5023261;28;20064;-87
2022/04/22 01:48:30;;;;;;;5.93;4.30;;;11.00;99.50;;;;;;5038436;28;20025;-87
2022/04/22 01:50:58;;;;;;;6.80;4.45;;;10.90;99.50;;;;;;5037958;28;20120;-87
2022/04/22 01:53:23;;;;;;;6.20;4.10;;;10.90;99.60;;;;;;5037516;28;20032;-87
2022/04/22 01:55:49;;;;;;;6.57;4.35;;;10.90;99.70;;;;;;5038082;28;20087;-86
2022/04/22 01:58:15;;;;;;;6.70;4.45;;;10.80;99.70;;;;;;5037595;28;20032;-86
2022/04/22 02:00:41;;;;;;;6.28;4.10;;;10.80;99.80;;;;;;5038055;28;20542;-89
2022/04/22 02:03:06;;;;;;;7.03;4.70;;;10.80;99.90;;;;;;5038867;28;20048;-88
2022/04/22 02:05:33;;;;;;;6.63;4.50;;;10.80;99.90;;;;;;5056170;28;20041;-87
2022/04/22 02:07:59;;;;;;;8.73;4.97;;;10.80;99.90;;;;;;5037875;28;20111;-87
2022/04/22 02:10:25;;;;;;;8.23;4.80;;;10.80;99.90;;;;;;5038158;28;20454;-88
2022/04/22 02:12:50;;;;;;;7.38;4.45;;;10.80;99.90;;;;;;5037852;28;20037;-88
2022/04/22 02:15:18;;;;;;;7.05;4.50;;;10.70;99.90;;;;;;5038370;28;20032;-87
2022/04/22 02:17:44;;;;;;;7.90;5.28;;;10.80;99.90;;;;;;5037876;28;20522;-88
2022/04/22 02:20:11;;;;;;;8.68;5.25;;;10.70;99.90;;;;;;5037461;28;20064;-89
2022/04/22 02:22:36;;;;;;;7.63;5.15;;;10.70;99.90;;;;;;5037639;28;20037;-88
2022/04/22 02:25:02;;;;;;;9.40;5.03;;;10.70;99.90;;;;;;5037309;28;20059;-88
2022/04/22 02:30:12;;;;;;;8.10;5.15;;;10.70;99.90;;;;;;5056013;28;20098;-89
2022/04/22 02:32:38;;;;;;;8.88;5.15;;;10.70;99.90;;;;;;5038025;28;20025;-89
2022/04/22 02:35:04;;;;;;;7.90;5.10;;;10.70;99.90;;;;;;5056362;28;20032;-88
2022/04/22 02:37:30;;;;;;;8.13;5.20;;;10.60;99.90;;;;;;5055692;28;20037;-88
2022/04/22 02:39:55;;;;;;;7.25;4.60;;;10.60;99.90;;;;;;5038489;28;20495;-89
2022/04/22 02:47:51;;;;;;;6.18;4.25;;;10.60;99.90;;;;;;5057193;28;20448;-89
2022/04/22 02:50:16;;;;;;;7.13;4.95;;;10.50;99.90;;;;;;5041645;28;20071;-89
2022/04/22 02:52:42;;;;;;;8.57;5.38;;;10.50;99.90;;;;;;5043032;28;20395;-90
2022/04/22 02:55:08;;;;;;;7.53;4.68;;;10.40;99.90;;;;;;5020715;28;20056;-89
2022/04/22 02:57:36;;;;;;;8.60;5.78;;;10.40;99.90;;;;;;5056773;28;20100;-88
2022/04/22 03:00:03;;;;;;;6.95;4.63;;;10.40;99.90;;;;;;5038154;28;20029;-88
2022/04/22 03:02:28;;;;;;;6.72;4.82;;;10.40;99.90;;;;;;5037662;28;20040;-89
2022/04/22 03:04:54;;;;;;;8.70;5.07;;;10.40;99.90;;;;;;5055877;28;20418;-88
2022/04/22 03:07:20;;;;;;;7.10;4.10;;;10.40;99.90;;;;;;5055397;28;20025;-89
2022/04/22 03:09:45;;;;;;;7.82;5.05;;;10.30;99.90;;;;;;5036863;28;20128;-88
2022/04/22 03:12:13;;;;;;;8.60;5.70;;;10.30;99.90;;;;;;5020975;28;20032;-89
2022/04/22 03:14:39;;;;;;;8.23;5.53;;;10.30;99.90;;;;;;5036856;28;20029;-89
2022/04/22 03:17:08;;;;;;;11.13;6.10;;;10.30;99.90;;;;;;5036814;28;20399;-89
2022/04/22 03:19:34;;;;;;;8.45;5.90;;;10.30;99.90;;;;;;5054799;28;20040;-89
2022/04/22 03:22:00;;;;;;;8.60;5.82;;;10.20;99.90;;;;;;5037338;28;20526;-88
2022/04/22 03:24:25;;;;;;;9.60;5.82;;;10.20;99.90;;;;;;5037172;28;20029;-89
2022/04/22 03:26:51;;;;;;;9.38;5.82;;;10.20;99.90;;;;;;5036922;28;20035;-86
2022/04/22 03:29:17;;;;;;;9.15;5.97;;;10.20;99.90;;;;;;5037351;28;20028;-88
2022/04/22 03:31:43;;;;;;;7.57;5.18;;;10.20;99.90;;;;;;5036649;28;20483;-89
2022/04/22 03:34:08;;;;;;;7.35;5.55;;;10.20;99.90;;;;;;5036900;28;20048;-89
2022/04/22 03:36:34;;;;;;;9.38;6.25;;;10.10;99.90;;;;;;5037311;28;20025;-88
2022/04/22 03:39:00;;;;;;;10.35;6.63;;;10.10;99.90;;;;;;5037195;28;20036;-91
2022/04/22 03:41:26;;;;;;;10.93;7.35;;;10.10;99.90;;;;;;5036973;28;20045;-88
2022/04/22 03:43:52;;;;;;;10.25;6.65;;;10.10;99.90;;;;;;5036375;28;20053;-88
2022/04/22 03:46:17;;;;;;;9.52;6.03;;;10.10;99.90;;;;;;5054194;28;20032;-88
2022/04/22 03:48:43;;;;;;;9.73;6.60;;;10.10;99.90;;;;;;5038015;28;20035;-88
2022/04/22 03:51:09;;;;;;;10.48;7.10;;;10.10;99.90;;;;;;5039186;28;20478;-88
2022/04/22 03:53:37;;;;;;;10.38;6.88;;;10.10;99.90;;;;;;5039439;28;20140;-87
2022/04/22 03:58:48;;;;;;;9.80;7.05;;;10.00;99.90;;;;;;5062069;28;20044;-87
2022/04/22 04:01:14;;;;;;;10.05;7.47;;;10.00;99.90;;;;;;5039864;28;20037;-87
2022/04/22 04:03:39;;;;;;;8.68;6.70;;;10.00;99.90;;;;;;5036196;28;20041;-88
2022/04/22 04:06:07;;;;;;;12.50;7.80;;;10.00;99.90;;;;;;5036236;28;20490;-87
2022/04/22 04:08:33;;;;;;;11.20;8.60;;;10.00;99.90;;;;;;5038405;28;20060;-88
2022/04/22 04:16:27;;;;;;;13.60;9.00;;;9.90;99.90;;;;;;5060277;28;20410;-87
2022/04/22 04:23:14;;;;;;;13.80;9.88;;;9.90;99.90;;;;;;5041251;28;20032;-88
2022/04/22 04:24:23;;;;;;;12.45;9.18;;;9.90;99.90;;;;;;5058292;28;20441;-88
2022/04/22 04:26:52;;;;;;;10.48;8.13;;;9.80;99.90;;;;;;5039498;28;20487;-87
2022/04/22 04:29:18;;;;;;;12.70;8.77;;;9.80;99.90;;;;;;5039612;28;20021;-89
2022/04/22 04:31:44;;;;;;;10.35;7.80;;;9.80;99.90;;;;;;5039455;28;20021;-88
2022/04/22 04:34:09;;;;;;;11.43;8.38;;;9.80;99.90;;;;;;5039701;28;20079;-87
2022/04/22 04:36:35;;;;;;;11.32;8.82;;;9.80;99.90;;;;;;5038972;28;20116;-88
2022/04/22 04:39:00;;;;;;;14.27;10.25;;;9.80;99.90;;;;;;5040895;28;20036;-88
2022/04/22 04:41:26;;;;;;;10.20;7.78;;;9.80;99.90;;;;;;5039738;28;20526;-88
2022/04/22 04:43:52;;;;;;;10.90;8.38;;;9.80;99.90;;;;;;5038644;28;20029;-89
2022/04/22 04:46:18;;;;;;;11.38;8.48;;;9.80;99.90;;;;;;5040658;28;20029;-89
2022/04/22 04:48:43;;;;;;;9.88;8.43;;;9.80;99.90;;;;;;5040219;28;20033;-87
2022/04/22 04:51:09;;;;;;;11.68;8.85;;;9.80;99.90;;;;;;5039489;28;20032;-87
2022/04/22 04:53:35;;;;;;;12.50;9.05;;;9.90;99.90;;;;;;5039255;28;20117;-87
2022/04/22 04:56:01;;;;;;;11.73;9.48;;;9.90;99.90;;;;;;5039115;28;20033;-88
2022/04/22 04:58:27;;;;;;;11.50;8.30;;;9.90;99.90;;;;;;5039003;28;20037;-87
2022/04/22 05:00:53;;;;;;;11.40;8.82;;;9.90;99.90;;;;;;5038867;28;20553;-87
2022/04/22 05:03:18;;;;;;;10.38;8.82;;;9.80;99.90;;;;;;5038880;28;20059;-88
2022/04/22 05:05:44;;;;;;;12.27;8.57;;;9.90;99.90;;;;;;5038909;28;20044;-87
2022/04/22 05:08:10;;;;;;;10.23;8.23;;;9.80;99.90;;;;;;5056259;28;20052;-88
2022/04/22 05:10:36;;;;;;;10.60;7.97;;;9.80;99.90;;;;;;5038589;28;20025;-87
2022/04/22 05:13:03;;;;;;;11.35;8.60;;;9.80;99.90;;;;;;5038510;28;20025;-88
2022/04/22 05:15:30;;;;;;;10.90;8.13;;;9.80;99.90;;;;;;5038318;28;20036;-87
2022/04/22 05:17:58;;;;;;;12.13;8.77;;;9.90;99.90;;;;;;5038653;28;20032;-87
2022/04/22 05:20:27;;;;;;;11.93;8.63;;;9.80;99.90;;;;;;5055793;28;20422;-87
2022/04/22 05:22:53;;;;;;;13.18;9.57;;;9.80;99.90;;;;;;5038734;28;20089;-88
2022/04/22 05:25:20;;;;;;;10.73;8.60;;;9.80;99.90;;;;;;5056539;28;20514;-88
2022/04/22 05:27:46;;;;;;;10.43;8.73;;;9.80;99.90;;;;;;5056444;28;20150;-88
2022/04/22 05:32:57;;;;;;;10.77;8.25;;;9.80;99.90;;;;;;5056686;28;20087;-87
2022/04/22 05:35:27;;;;;;;12.20;8.85;;;9.80;99.90;;;;;;5056396;28;20041;-88
2022/04/22 05:38:04;;;;;;;10.85;8.30;;;9.80;99.90;;;;;;5038151;28;20033;-88
2022/04/22 05:40:33;;;;;;;14.70;10.00;;;9.90;99.90;;;;;;5038145;28;20097;-90
2022/04/22 05:42:59;;;;;;;11.60;9.60;;;9.90;99.90;;;;;;5056674;28;20490;-87
2022/04/22 05:45:27;;;;;;;11.93;10.50;;;9.90;99.90;;;;;;5021892;28;20380;-87
2022/04/22 05:47:53;;;;;;;10.82;9.25;;;9.90;99.90;;;;;;5038595;28;20033;-88
2022/04/22 05:50:21;;;;;;;13.13;9.85;;;9.90;99.90;;;;;;5055778;28;20474;-87
2022/04/22 05:52:47;;;;;;;14.75;11.32;;;9.90;99.90;;;;;;5038324;28;20041;-89
2022/04/22 05:55:16;;;;;;;14.75;12.05;;;10.00;99.90;;;;;;5038658;28;20124;-88
2022/04/22 05:57:42;;;;;;;13.88;10.98;;;10.00;99.90;;;;;;5055765;28;20475;-89
2022/04/22 06:00:12;;;;;;;13.90;10.60;;;10.00;99.90;;;;;;5055764;28;20036;-88
2022/04/22 06:02:38;;;;;;;12.07;10.30;;;10.10;99.90;;;;;;5038072;28;20455;-89
2022/04/22 06:05:05;;;;;;;14.60;10.95;;;10.20;99.90;;;;;;5037916;28;20041;-88
2022/04/22 06:07:31;;;;;;;10.70;9.18;;;10.20;99.90;;;;;;5037760;28;20040;-87
2022/04/22 06:12:41;;;;;;;11.75;10.25;;;10.30;99.90;;;;;;5056097;28;20052;-88
2022/04/22 06:15:07;;;;;;;11.93;10.10;;;10.30;99.90;;;;;;5037948;28;20163;-90
2022/04/22 06:17:33;;;;;;;14.25;10.82;;;10.50;99.90;;;;;;5037832;28;20075;-89
2022/04/22 06:19:59;;;;;;;13.80;10.90;;;10.50;99.90;;;;;;5037958;28;20033;-88
2022/04/22 06:22:26;;;;;;;13.23;10.13;;;10.60;99.90;;;;;;5038266;28;20095;-92
2022/04/22 06:24:52;;;;;;;13.70;11.07;;;10.60;99.90;;;;;;5037896;28;20116;-90
2022/04/22 06:27:39;;;;;;;11.82;10.50;;;10.70;99.90;;;;;;5037622;28;20067;-89
2022/04/22 06:30:07;;;;;;;14.32;11.18;;;10.80;99.90;;;;;;5036922;28;20502;-89
2022/04/22 06:32:33;;;;;;;11.02;8.90;;;10.80;99.90;;;;;;5037027;28;20036;-89
2022/04/22 06:34:59;;;;;;;12.77;9.57;;;10.80;99.90;;;;;;5037248;28;20629;-87
2022/04/22 06:37:25;;;;;;;11.60;9.75;;;10.80;99.90;;;;;;5037450;28;20119;-87
2022/04/22 06:48:06;;;;;;;15.82;11.50;;;11.10;99.90;;;;;;5055887;28;20044;-88
2022/04/22 06:50:32;;;;;;;13.95;10.90;;;11.20;99.90;;;;;;5038348;28;20398;-86
2022/04/22 06:52:58;;;;;;;13.50;10.80;;;11.30;99.90;;;;;;5059047;28;20037;-88
2022/04/22 06:55:24;;;;;;;15.65;11.55;;;11.30;99.90;;;;;;5037161;28;20132;-89
2022/04/22 06:57:51;;;;;;;14.77;11.35;;;11.30;99.90;;;;;;5041533;28;20064;-88
2022/04/22 07:00:18;;;;;;;13.52;9.52;;;11.30;99.90;;;;;;5039444;28;20421;-89
2022/04/22 07:02:48;;;;;;;12.07;9.43;;;11.30;99.90;;;;;;5036824;28;20033;-88
2022/04/22 07:05:14;;;;;;;13.65;11.10;;;11.40;99.90;;;;;;5036737;28;20048;-90
2022/04/22 07:07:40;;;;;;;12.77;10.15;;;11.40;99.90;;;;;;5036757;28;20044;-90
2022/04/22 07:10:06;;;;;;;14.48;11.50;;;11.40;99.90;;;;;;5036808;28;20029;-88
2022/04/22 07:12:33;;;;;;;17.50;12.80;;;11.40;99.90;;;;;;5036447;28;20395;-89
2022/04/22 07:15:03;;;;;;;15.15;11.77;;;11.50;99.90;;;;;;5036612;28;20467;-90
2022/04/22 07:17:37;;;;;;;16.83;13.05;;;11.50;99.90;;;;;;5036591;28;20549;-88
2022/04/22 07:20:05;;;;;;;;;;;11.50;99.90;;;;;;5036773;28;20037;-90
2022/04/22 07:22:32;;;;;;;14.93;10.95;;;11.50;99.90;;;;;;5034425;28;20255;-86
2022/04/22 07:24:57;;;;;;;14.65;11.13;;;11.50;99.90;;;;;;5033296;28;20032;-86
2022/04/22 07:27:28;;;;;;;17.05;10.88;;;11.50;99.90;;;;;;5032590;28;20553;-86
2022/04/22 07:29:55;;;;;;;12.32;10.65;;;11.60;99.90;;;;;;5051050;28;20044;-87
2022/04/22 07:32:21;;;;;;;14.00;11.10;;;11.70;99.90;;;;;;5033850;28;20145;-88
2022/04/22 07:34:47;;;;;;;13.73;10.52;;;11.70;99.90;;;;;;5051226;28;20091;-87
2022/04/22 07:37:13;;;;;;;14.98;10.55;;;11.80;99.90;;;;;;5032953;28;20037;-87
2022/04/22 07:39:39;;;;;;;13.18;10.00;;;11.80;99.90;;;;;;5033510;28;20565;-90
2022/04/22 07:42:12;;;;;;;15.77;11.30;;;11.90;99.90;;;;;;5035080;28;20041;-86
2022/04/22 07:47:22;;;;;;;13.98;10.52;;;12.00;99.90;;;;;;5052477;28;20071;-89
2022/04/22 07:49:49;;;;;;;14.23;10.20;;;12.10;99.90;;;;;;5035261;28;20033;-88
2022/04/22 07:52:14;;;;;;;12.18;10.10;;;12.30;99.90;;;;;;5035453;28;20062;-89
2022/04/22 07:54:40;;;;;;;16.95;9.70;;;12.50;99.90;;;;;;5034263;28;20048;-85
2022/04/22 07:57:06;;;;;;;13.63;10.20;;;12.70;99.90;;;;;;5049412;28;20039;-87
2022/04/22 07:59:32;;;;;;;11.70;9.45;;;12.90;99.90;;;;;;5053783;28;20538;-90
2022/04/22 08:02:01;;;;;;;11.82;9.82;;;13.20;99.90;;;;;;5054006;28;20046;-88
2022/04/22 08:04:27;;;;;;;14.32;10.02;;;13.40;99.90;;;;;;5055607;28;20037;-88
2022/04/22 08:06:52;;;;;;;12.48;9.77;;;13.50;99.90;;;;;;5058143;28;20490;-86
2022/04/22 08:09:18;;;;;;;12.18;9.80;;;13.70;99.90;;;;;;5077834;28;20016;-92
2022/04/22 08:11:44;;;;;;;11.80;9.18;;;13.80;99.90;;;;;;5087990;28;20024;-86
2022/04/22 08:14:12;;;;;;;14.25;8.52;;;13.80;99.90;;;;;;5086144;28;20024;-88
2022/04/22 08:16:39;;;;;;;14.80;10.07;;;13.80;99.90;;;;;;5082523;28;20032;-85
2022/04/22 08:19:05;;;;;;;12.05;9.23;;;13.80;99.90;;;;;;5084467;28;20042;-87
2022/04/22 08:21:33;;;;;;;15.68;11.30;;;13.90;99.90;;;;;;5068671;28;20115;-88
2022/04/22 08:24:00;;;;;;;11.20;8.95;;;13.90;99.90;;;;;;5081400;28;20025;-89
2022/04/22 08:26:26;;;;;;;13.35;8.95;;;13.80;99.90;;;;;;5097637;28;20036;-86
2022/04/22 08:28:51;;;;;;;11.43;9.15;;;13.70;99.90;;;;;;5092642;28;20032;-85
2022/04/22 08:31:17;;;;;;;10.38;8.27;;;13.70;99.90;;;;;;5094646;28;20032;-88
2022/04/22 08:33:48;;;;;;;12.00;9.18;;;13.60;99.90;;;;;;5113187;28;20513;-89
2022/04/22 08:36:15;;;;;;;12.63;9.50;;;13.80;99.90;;;;;;5080356;28;20087;-87
2022/04/22 08:38:41;;;;;;;13.40;9.25;;;13.90;99.90;;;;;;5057197;28;20036;-89
2022/04/22 08:41:09;;;;;;;10.63;7.68;;;14.00;99.90;;;;;;5064186;28;20041;-85
2022/04/22 08:43:37;;;;;;;11.35;8.73;;;14.30;99.90;;;;;;5076085;28;20046;-86
2022/04/22 08:46:02;;;;;;;11.70;9.25;;;14.40;99.90;;;;;;5079385;28;20043;-87
2022/04/22 08:51:15;;;;;;;12.63;9.25;;;14.70;99.90;;;;;;5097110;28;20063;-88
2022/04/22 08:53:45;;;;;;;15.27;9.55;;;14.90;99.90;;;;;;5079763;28;20031;-88
2022/04/22 08:56:13;;;;;;;14.98;8.95;;;15.00;99.90;;;;;;5081797;28;20021;-90
2022/04/22 08:58:39;;;;;;;13.25;9.43;;;15.20;99.90;;;;;;5080526;28;20033;-90
2022/04/22 09:01:06;;;;;;;14.85;9.05;;;15.20;99.90;;;;;;5083370;28;20040;-91
2022/04/22 09:03:32;;;;;;;11.50;8.70;;;15.20;99.90;;;;;;5082032;28;20044;-89
2022/04/22 09:06:02;;;;;;;12.07;8.52;;;15.20;99.90;;;;;;5078005;28;20037;-87
2022/04/22 09:08:28;;;;;;;15.35;8.43;;;15.20;99.90;;;;;;5095230;28;20039;-91
2022/04/22 09:10:55;;;;;;;9.27;7.45;;;15.10;99.90;;;;;;5074879;28;20024;-89
2022/04/22 09:13:30;;;;;;;10.82;8.20;;;15.10;99.90;;;;;;5074981;28;20030;-88
2022/04/22 09:15:57;;;;;;;11.50;7.72;;;15.00;99.90;;;;;;5069059;28;20029;-83
2022/04/22 09:18:25;;;;;;;11.20;7.50;;;15.00;99.90;;;;;;5067453;28;20033;-83
2022/04/22 09:20:53;;;;;;;11.25;8.50;;;15.10;99.90;;;;;;5068339;28;20040;-85
2022/04/22 09:23:32;;;;;;;11.60;7.47;;;15.10;99.90;;;;;;5068263;28;20052;-79
2022/04/22 09:25:58;;;;;;;10.68;6.90;;;15.10;99.90;;;;;;5068258;28;20411;-84
2022/04/22 09:28:24;;;;;;;10.38;7.18;;;15.00;99.90;;;;;;5064642;28;20017;-82
2022/04/22 09:31:00;;;;;;;9.88;7.15;;;15.10;99.90;;;;;;5069555;28;20055;-82
2022/04/22 09:33:34;;;;;;;10.25;7.63;;;15.00;99.90;;;;;;5069833;28;20033;-83
2022/04/22 09:44:29;;;;;;;7.43;5.40;;;18.50;99.90;;;;;;5060806;28;20115;-85
2022/04/22 09:47:11;;;;;;;9.57;5.45;;;19.50;99.90;;;;;;5058093;28;20041;-86
2022/04/22 09:49:43;;;;;;;6.63;5.20;;;20.10;99.70;;;;;;5057912;28;20033;-84
2022/04/22 09:52:10;;;;;;;6.90;5.18;;;20.50;99.20;;;;;;5058529;28;20075;-83
2022/04/22 09:54:38;;;;;;;6.97;4.65;;;21.10;98.50;;;;;;5059183;28;20116;-85
2022/04/22 09:57:04;;;;;;;8.93;5.32;;;21.40;97.50;;;;;;5062257;28;20037;-85
2022/04/22 09:59:32;;;;;;;6.20;4.35;;;21.70;97.00;;;;;;5062188;28;20021;-82
2022/04/22 10:02:04;;;;;;;8.98;4.30;;;22.10;96.70;;;;;;5063260;28;20068;-88
2022/04/22 10:04:31;;;;;;;7.35;4.40;;;22.70;96.10;;;;;;5041621;28;20033;-87
2022/04/22 10:07:00;;;;;;;6.20;4.05;;;23.00;94.80;;;;;;5041771;28;20045;-84
2022/04/22 10:09:28;;;;;;;6.70;4.65;;;23.20;94.50;;;;;;5060784;28;20399;-86
2022/04/22 10:11:57;;;;;;;7.95;4.63;;;23.50;93.20;;;;;;5060711;28;20025;-82
2022/04/22 10:14:38;;;;;;;6.60;3.85;;;23.40;92.10;;;;;;5042225;28;20059;-82
2022/04/22 10:17:05;;;;;;;6.85;4.25;;;23.40;91.80;;;;;;5044395;28;20029;-80
2022/04/22 10:19:35;;;;;;;5.43;3.42;;;23.30;91.40;;;;;;5041027;28;20063;-86
2022/04/22 10:22:02;;;;;;;5.57;3.55;;;23.40;91.40;;;;;;5041901;28;20059;-80
2022/04/22 10:24:31;;;;;;;7.90;4.68;;;23.50;91.10;;;;;;5043799;28;20120;-81
2022/04/22 10:26:58;;;;;;;8.20;5.63;;;23.00;90.50;;;;;;5044099;28;20146;-86
2022/04/22 10:29:25;;;;;;;7.78;4.60;;;23.00;90.10;;;;;;5052811;23;20053;-87
2022/04/22 10:31:59;;;;;;;8.35;4.43;;;22.30;90.10;;;;;;5045252;28;20060;-85
2022/04/22 10:34:42;;;;;;;5.40;3.88;;;22.20;90.20;;;;;;5024567;28;20406;-86
2022/04/22 10:37:25;;;;;;;5.93;3.08;;;22.80;90.20;;;;;;5026643;28;20033;-85
2022/04/22 10:39:52;;;;;;;5.38;4.03;;;23.60;89.40;;;;;;5058733;28;20147;-87
2022/04/22 10:42:18;;;;;;;5.50;4.07;;;24.20;88.30;;;;;;5022960;28;20388;-87
2022/04/22 10:47:43;;;;;;;7.35;3.53;;;23.90;87.00;;;;;;5059307;28;20040;-82
2022/04/22 10:50:30;;;;;;;6.07;3.70;;;24.20;85.90;;;;;;5039140;28;20037;-84
2022/04/22 10:53:01;;;;;;;6.13;3.67;;;24.60;85.10;;;;;;5038717;28;20048;-88
2022/04/22 10:55:32;;;;;;;5.38;3.63;;;24.70;84.20;;;;;;5039809;28;20391;-86
2022/04/22 10:58:13;;;;;;;4.40;2.67;;;24.80;83.90;;;;;;5056341;28;20048;-85
2022/04/22 11:00:49;;;;;;;6.45;3.40;;;25.30;84.00;;;;;;5057397;28;20068;-84
2022/04/22 11:03:16;;;;;;;4.60;3.28;;;25.90;83.50;;;;;;5039102;28;20587;-85
2022/04/22 11:06:01;;;;;;;4.63;3.05;;;26.20;81.30;;;;;;5039848;28;20107;-86
2022/04/22 11:08:39;;;;;;;4.85;3.00;;;25.70;79.20;;;;;;5039595;28;20037;-82
2022/04/22 11:11:06;;;;;;;4.07;2.70;;;24.70;79.80;;;;;;5058887;28;20052;-86
2022/04/22 11:13:42;;;;;;;4.10;2.90;;;24.30;80.80;;;;;;5039089;28;20528;-87
2022/04/22 11:16:20;;;;;;;4.63;2.85;;;24.40;80.10;;;;;;5056346;28;20033;-85
2022/04/22 11:19:09;;;;;;;6.80;3.30;;;24.50;79.20;;;;;;5056883;28;20041;-86
2022/04/22 11:21:37;;;;;;;5.80;3.60;;;23.70;77.80;;;;;;5055645;28;20124;-87
2022/04/22 11:24:15;;;;;;;3.90;2.67;;;23.10;78.60;;;;;;5040529;28;20032;-82
2022/04/22 11:26:42;;;;;;;8.10;3.38;;;22.30;80.00;;;;;;5040224;28;20037;-85
2022/04/22 11:29:10;;;;;;;3.60;2.40;;;22.20;82.10;;;;;;5038058;28;20515;-85
2022/04/22 11:31:36;;;;;;;8.30;2.80;;;23.10;82.10;;;;;;5037868;28;20391;-87
2022/04/22 11:34:18;;;;;;;4.03;2.90;;;24.20;80.30;;;;;;5055446;28;20033;-87
2022/04/22 11:36:46;;;;;;;4.57;2.80;;;24.80;77.90;;;;;;5054973;28;20040;-88
2022/04/22 11:39:23;;;;;;;4.35;2.60;;;24.40;78.30;;;;;;5055944;28;20041;-87
2022/04/22 11:42:00;;;;;;;4.50;2.40;;;24.50;77.30;;;;;;5037600;28;20048;-85
2022/04/22 11:44:30;;;;;;;4.50;2.63;;;24.20;77.50;;;;;;5042378;28;20029;-81
2022/04/22 11:47:00;;;;;;;6.47;3.13;;;23.50;76.80;;;;;;5061740;28;20029;-85
2022/04/22 11:49:29;;;;;;;6.10;2.78;;;22.90;78.50;;;;;;5057426;28;20544;-85
2022/04/22 11:51:55;;;;;;;4.78;2.92;;;22.70;79.10;;;;;;5059679;28;20029;-81
2022/04/22 11:54:25;;;;;;;4.00;2.63;;;23.20;77.60;;;;;;5057533;28;20056;-86
2022/04/22 11:56:53;;;;;;;4.13;2.92;;;23.00;76.20;;;;;;5058555;28;20040;-80
2022/04/22 11:59:20;;;;;;;4.40;2.60;;;22.40;75.90;;;;;;5061179;28;20037;-80
2022/04/22 12:10:06;;;;;;;3.15;1.90;;;20.80;79.70;;;;;;5063477;28;20104;-81
2022/04/22 12:12:32;;;;;;;3.97;2.47;;;20.60;80.00;;;;;;5039012;28;20037;-87
2022/04/22 12:15:02;;;;;;;5.05;2.95;;;20.70;79.00;;;;;;5041683;28;20017;-86
2022/04/22 12:17:29;;;;;;;4.40;2.30;;;20.50;79.00;;;;;;5042327;28;20139;-84
2022/04/22 12:19:54;;;;;;;3.92;2.65;;;20.10;80.20;;;;;;5040418;28;20025;-81
2022/04/22 12:22:22;;;;;;;4.65;2.50;;;19.90;81.20;;;;;;5047209;28;20029;-80
2022/04/22 12:25:07;;;;;;;4.05;2.40;;;19.90;82.50;;;;;;5043123;28;20040;-85
2022/04/22 12:27:35;;;;;;;4.05;2.72;;;20.20;82.00;;;;;;5041838;28;20025;-81
2022/04/22 12:30:06;;;;;;;3.92;2.53;;;20.40;81.70;;;;;;5059770;28;20068;-86
2022/04/22 12:32:32;;;;;;;6.65;2.95;;;20.90;82.40;;;;;;5043450;28;20040;-87
2022/04/22 12:35:18;;;;;;;4.45;2.70;;;22.10;81.30;;;;;;5061906;28;20033;-84
2022/04/22 12:37:50;;;;;;;3.72;2.60;;;23.30;79.40;;;;;;5043679;28;20029;-87
2022/04/22 12:40:19;;;;;;;3.75;2.60;;;24.20;78.40;;;;;;5044664;28;20063;-87
2022/04/22 12:42:46;;;;;;;5.72;2.97;;;24.90;77.50;;;;;;5043469;28;20061;-87
2022/04/22 12:53:47;;;;;;;4.53;2.25;;;26.10;74.90;;;;;;5058565;28;20406;-84
2022/04/22 12:56:13;;;;;;;4.75;2.42;;;25.90;73.70;;;;;;5026044;28;20071;-84
2022/04/22 12:59:04;;;;;;;5.07;3.03;;;25.50;74.00;;;;;;5058191;28;20044;-87
2022/04/22 13:01:37;;;;;;;4.80;2.70;;;25.60;72.60;;;;;;5053779;28;20060;-82
2022/04/22 13:04:05;;;;;;;3.97;2.30;;;25.50;72.50;;;;;;5032892;28;20083;-86
2022/04/22 13:06:44;;;;;;;3.85;2.40;;;25.40;71.90;;;;;;5033356;28;20038;-86
2022/04/22 13:09:13;;;;;;;3.28;2.40;;;25.60;72.00;;;;;;5046752;28;20037;-86
2022/04/22 13:11:40;;;;;;;3.72;2.38;;;25.80;72.10;;;;;;5035712;28;20044;-84
2022/04/22 13:14:07;;;;;;;4.18;2.63;;;25.80;71.60;;;;;;5054215;28;20029;-85
2022/04/22 13:16:33;;;;;;;3.85;2.20;;;25.50;73.10;;;;;;5033602;28;20037;-86
2022/04/22 13:19:01;;;;;;;4.80;2.35;;;24.80;73.10;;;;;;5018438;28;20044;-85
2022/04/22 13:21:27;;;;;;;4.03;2.42;;;24.20;73.80;;;;;;5042435;28;20127;-82
2022/04/22 13:23:54;;;;;;;4.35;2.78;;;23.50;74.50;;;;;;5050243;28;20087;-84
2022/04/22 13:26:20;;;;;;;4.20;2.65;;;22.80;74.80;;;;;;5031823;28;20040;-86
2022/04/22 13:28:47;;;;;;;3.60;2.10;;;22.00;75.00;;;;;;5032790;28;20052;-82
2022/04/22 13:31:13;;;;;;;4.15;2.30;;;21.40;76.20;;;;;;5037009;28;20507;-86
2022/04/22 13:33:39;;;;;;;3.08;1.95;;;21.10;77.60;;;;;;5048765;28;20075;-88
2022/04/22 13:36:09;;;;;;;3.65;2.10;;;21.00;78.20;;;;;;5049250;28;20120;-86
2022/04/22 13:38:37;;;;;;;5.32;3.00;;;20.90;78.80;;;;;;5033461;28;20706;-86
2022/04/22 13:41:06;;;;;;;5.32;2.78;;;20.80;79.60;;;;;;5051130;28;20048;-85
2022/04/22 13:43:33;;;;;;;5.13;3.03;;;20.70;79.60;;;;;;5049007;28;20025;-84
2022/04/22 13:54:13;;;;;;;4.40;2.40;;;21.00;78.90;;;;;;5050109;28;20891;-84
2022/04/22 13:56:38;;;;;;;5.03;2.50;;;21.10;78.90;;;;;;5037309;28;20037;-84
2022/04/22 13:59:04;;;;;;;3.70;2.28;;;21.20;78.50;;;;;;5039628;28;20128;-84
2022/04/22 14:01:29;;;;;;;3.42;2.63;;;21.40;77.90;;;;;;5044314;28;20506;-83
2022/04/22 14:03:55;;;;;;;5.25;2.70;;;21.60;77.30;;;;;;5031367;28;20029;-89
2022/04/22 14:06:21;;;;;;;3.83;2.10;;;21.50;76.90;;;;;;5046943;28;20036;-83